AAL3315 KMIA-TNCM
Flight info
| Callsign | AAL3315 |
|---|---|
| Flight time | N/A |
| Altitude | 33000 |
| Route | KLADA2 BITAC Y290 SLUGO ULUBA1 |
| Aircraft | A321/M-SDE3FGHIRWY/LB1 |
Departure
| Time | N/A |
|---|---|
| Airport | Miami International Airport (KMIA) |
Arrival
| Time | 2026-05-04 17:14 |
|---|---|
| Airport | Princess Juliana International Airport (TNCM) |
| Time | Latitude | Longitude | Altitude | Speed | Heading |
|---|---|---|---|---|---|
| 2026-05-04 15:58 | 21.88452 | -71.62458 | 33079 ft | 484 kts | 122° |
| 2026-05-04 15:59 | 21.84900 | -71.55565 | 33075 ft | 484 kts | 122° |
| 2026-05-04 15:59 | 21.81640 | -71.49225 | 33082 ft | 484 kts | 122° |
| 2026-05-04 16:00 | 21.78910 | -71.43916 | 33078 ft | 484 kts | 122° |
| 2026-05-04 16:00 | 21.75647 | -71.37598 | 33079 ft | 483 kts | 122° |
| 2026-05-04 16:01 | 21.72373 | -71.31286 | 33052 ft | 482 kts | 122° |
| 2026-05-04 16:01 | 21.69111 | -71.24982 | 33061 ft | 482 kts | 122° |
| 2026-05-04 16:02 | 21.65854 | -71.18683 | 33056 ft | 481 kts | 122° |
| 2026-05-04 16:03 | 21.60961 | -71.09259 | 33067 ft | 481 kts | 122° |
| 2026-05-04 16:03 | 21.57654 | -71.02944 | 33073 ft | 480 kts | 126° |
| 2026-05-04 16:04 | 21.53909 | -70.97019 | 33076 ft | 479 kts | 127° |
| 2026-05-04 16:04 | 21.48262 | -70.88164 | 33080 ft | 479 kts | 127° |
| 2026-05-04 16:05 | 21.44527 | -70.82300 | 33078 ft | 479 kts | 127° |
| 2026-05-04 16:06 | 21.38894 | -70.73440 | 33080 ft | 478 kts | 127° |
| 2026-05-04 16:07 | 21.31342 | -70.61623 | 33081 ft | 478 kts | 127° |
| 2026-05-04 16:08 | 21.23817 | -70.49869 | 33085 ft | 477 kts | 127° |
| 2026-05-04 16:09 | 21.14413 | -70.35201 | 33084 ft | 477 kts | 127° |
| 2026-05-04 16:10 | 21.06893 | -70.23503 | 33085 ft | 476 kts | 127° |
| 2026-05-04 16:11 | 20.99367 | -70.11829 | 33089 ft | 476 kts | 127° |
| 2026-05-04 16:12 | 20.88096 | -69.94397 | 33086 ft | 475 kts | 127° |
| 2026-05-04 16:13 | 20.80465 | -69.82601 | 33067 ft | 488 kts | 127° |
| 2026-05-04 16:14 | 20.72632 | -69.70531 | 33065 ft | 499 kts | 127° |
| 2026-05-04 16:16 | 20.62678 | -69.55219 | 33069 ft | 502 kts | 127° |
| 2026-05-04 16:17 | 20.52648 | -69.39867 | 33082 ft | 503 kts | 127° |
| 2026-05-04 16:18 | 20.44629 | -69.27599 | 33090 ft | 504 kts | 126° |
| 2026-05-04 16:19 | 20.34596 | -69.12285 | 33097 ft | 503 kts | 126° |
| 2026-05-04 16:20 | 20.24534 | -68.96987 | 33098 ft | 503 kts | 126° |
| 2026-05-04 16:22 | 20.14490 | -68.81742 | 33098 ft | 503 kts | 126° |
| 2026-05-04 16:23 | 20.02587 | -68.63300 | 33101 ft | 503 kts | 124° |
| 2026-05-04 16:25 | 19.91104 | -68.44597 | 33107 ft | 502 kts | 124° |
| 2026-05-04 16:26 | 19.78226 | -68.23922 | 33099 ft | 501 kts | 124° |
| 2026-05-04 16:28 | 19.68532 | -68.08373 | 33105 ft | 500 kts | 124° |
| 2026-05-04 16:29 | 19.55016 | -67.86770 | 33100 ft | 500 kts | 124° |
| 2026-05-04 16:31 | 19.45344 | -67.71378 | 33103 ft | 500 kts | 124° |
| 2026-05-04 16:32 | 19.33503 | -67.52558 | 33099 ft | 500 kts | 124° |
| 2026-05-04 16:33 | 19.26323 | -67.41177 | 33098 ft | 500 kts | 124° |
| 2026-05-04 16:34 | 19.20527 | -67.31995 | 33098 ft | 500 kts | 124° |
| 2026-05-04 16:35 | 19.08708 | -67.13334 | 33093 ft | 500 kts | 124° |
| 2026-05-04 16:36 | 19.02872 | -67.04144 | 33095 ft | 500 kts | 123° |
| 2026-05-04 16:37 | 18.97057 | -66.94995 | 33090 ft | 499 kts | 123° |
| 2026-05-04 16:38 | 18.89299 | -66.82812 | 33084 ft | 500 kts | 123° |
| 2026-05-04 16:39 | 18.79561 | -66.67552 | 33078 ft | 500 kts | 123° |
| 2026-05-04 16:40 | 18.76435 | -66.61045 | 33074 ft | 498 kts | 105° |
| 2026-05-04 16:40 | 18.75457 | -66.53865 | 33072 ft | 495 kts | 92° |
| 2026-05-04 16:41 | 18.74246 | -66.35657 | 33073 ft | 497 kts | 93° |
| 2026-05-04 16:43 | 18.73018 | -66.17477 | 33086 ft | 497 kts | 93° |
| 2026-05-04 16:43 | 18.72275 | -66.06537 | 33094 ft | 496 kts | 92° |
| 2026-05-04 16:45 | 18.70774 | -65.84701 | 33092 ft | 495 kts | 93° |
| 2026-05-04 16:46 | 18.70094 | -65.75027 | 32780 ft | 488 kts | 93° |
| 2026-05-04 16:46 | 18.69587 | -65.68034 | 32044 ft | 472 kts | 93° |
| 2026-05-04 16:47 | 18.69101 | -65.61186 | 31325 ft | 465 kts | 93° |
| 2026-05-04 16:47 | 18.68628 | -65.54469 | 30644 ft | 458 kts | 93° |
| 2026-05-04 16:48 | 18.67905 | -65.44397 | 29505 ft | 448 kts | 94° |
| 2026-05-04 16:48 | 18.67826 | -65.43333 | 29378 ft | 447 kts | 94° |
| 2026-05-04 16:49 | 18.67027 | -65.34631 | 28336 ft | 440 kts | 99° |
| 2026-05-04 16:49 | 18.65994 | -65.28311 | 27586 ft | 434 kts | 99° |
| 2026-05-04 16:50 | 18.64972 | -65.22077 | 26855 ft | 429 kts | 99° |
| 2026-05-04 16:50 | 18.63963 | -65.15917 | 26143 ft | 424 kts | 99° |
| 2026-05-04 16:51 | 18.62963 | -65.09783 | 25447 ft | 419 kts | 99° |
| 2026-05-04 16:51 | 18.62469 | -65.06754 | 25108 ft | 421 kts | 99° |
| 2026-05-04 16:51 | 18.61416 | -65.00341 | 24434 ft | 459 kts | 99° |
| 2026-05-04 16:52 | 18.60286 | -64.93458 | 23771 ft | 485 kts | 99° |
| 2026-05-04 16:52 | 18.59700 | -64.89894 | 23390 ft | 486 kts | 99° |
| 2026-05-04 16:53 | 18.58529 | -64.82815 | 22616 ft | 490 kts | 99° |
| 2026-05-04 16:53 | 18.56768 | -64.72163 | 21504 ft | 488 kts | 100° |
| 2026-05-04 16:54 | 18.56181 | -64.68605 | 21138 ft | 487 kts | 100° |
| 2026-05-04 16:55 | 18.53842 | -64.54565 | 19727 ft | 481 kts | 101° |
| 2026-05-04 16:55 | 18.52674 | -64.47619 | 19045 ft | 477 kts | 101° |
| 2026-05-04 16:56 | 18.51508 | -64.40692 | 18361 ft | 473 kts | 101° |
| 2026-05-04 16:56 | 18.49806 | -64.30539 | 17210 ft | 465 kts | 101° |
| 2026-05-04 16:57 | 18.49239 | -64.27150 | 16827 ft | 461 kts | 101° |
| 2026-05-04 16:57 | 18.48123 | -64.20545 | 16094 ft | 455 kts | 101° |
| 2026-05-04 16:58 | 18.46647 | -64.11841 | 15145 ft | 446 kts | 100° |
| 2026-05-04 16:58 | 18.46107 | -64.08640 | 14799 ft | 442 kts | 101° |
| 2026-05-04 16:59 | 18.45020 | -64.02224 | 14106 ft | 435 kts | 100° |
| 2026-05-04 17:00 | 18.42905 | -63.89816 | 12624 ft | 423 kts | 101° |
| 2026-05-04 17:00 | 18.41344 | -63.80731 | 11514 ft | 414 kts | 101° |
| 2026-05-04 17:01 | 18.40328 | -63.74723 | 11045 ft | 409 kts | 101° |
| 2026-05-04 17:01 | 18.39319 | -63.68817 | 11078 ft | 410 kts | 101° |
| 2026-05-04 17:02 | 18.37065 | -63.63355 | 11081 ft | 408 kts | 130° |
| 2026-05-04 17:02 | 18.33005 | -63.59289 | 10130 ft | 357 kts | 138° |
| 2026-05-04 17:03 | 18.31185 | -63.57574 | 9517 ft | 334 kts | 138° |
| 2026-05-04 17:03 | 18.29496 | -63.55993 | 8891 ft | 316 kts | 138° |
| 2026-05-04 17:03 | 18.26327 | -63.53019 | 7669 ft | 289 kts | 137° |
| 2026-05-04 17:04 | 18.23439 | -63.50295 | 6500 ft | 270 kts | 137° |
| 2026-05-04 17:05 | 18.22477 | -63.49323 | 6050 ft | 263 kts | 132° |
| 2026-05-04 17:05 | 18.20115 | -63.46988 | 4992 ft | 275 kts | 136° |
| 2026-05-04 17:06 | 18.17157 | -63.44275 | 3752 ft | 282 kts | 137° |
| 2026-05-04 17:06 | 18.15712 | -63.42946 | 3175 ft | 269 kts | 137° |
| 2026-05-04 17:07 | 18.13029 | -63.40442 | 2976 ft | 247 kts | 136° |
| 2026-05-04 17:07 | 18.12182 | -63.39644 | 2993 ft | 248 kts | 136° |
| 2026-05-04 17:07 | 18.10447 | -63.38007 | 2979 ft | 225 kts | 137° |
| 2026-05-04 17:07 | 18.09223 | -63.36853 | 3012 ft | 198 kts | 137° |
| 2026-05-04 17:08 | 18.08291 | -63.35975 | 2997 ft | 175 kts | 136° |
| 2026-05-04 17:08 | 18.06626 | -63.34404 | 2989 ft | 156 kts | 135° |
| 2026-05-04 17:08 | 18.05836 | -63.33655 | 3005 ft | 155 kts | 135° |
| 2026-05-04 17:09 | 18.05029 | -63.32891 | 3004 ft | 154 kts | 135° |
| 2026-05-04 17:09 | 18.04234 | -63.32140 | 2997 ft | 153 kts | 135° |
| 2026-05-04 17:09 | 18.03431 | -63.31382 | 2998 ft | 153 kts | 135° |
| 2026-05-04 17:10 | 18.02092 | -63.29632 | 2997 ft | 150 kts | 114° |
| 2026-05-04 17:10 | 18.01865 | -63.26457 | 2733 ft | 156 kts | 84° |
| 2026-05-04 17:11 | 18.01976 | -63.25702 | 2612 ft | 153 kts | 85° |
| 2026-05-04 17:11 | 18.02137 | -63.24586 | 2402 ft | 153 kts | 84° |
| 2026-05-04 17:11 | 18.02457 | -63.22376 | 2003 ft | 145 kts | 83° |
| 2026-05-04 17:12 | 18.02613 | -63.21291 | 1809 ft | 143 kts | 83° |
| 2026-05-04 17:12 | 18.02925 | -63.19122 | 1406 ft | 142 kts | 85° |
| 2026-05-04 17:13 | 18.03318 | -63.16369 | 914 ft | 141 kts | 84° |
| 2026-05-04 17:14 | 18.03752 | -63.13356 | 376 ft | 142 kts | 85° |
| 2026-05-04 17:14 | 18.03888 | -63.12289 | 170 ft | 142 kts | 82° |
| 2026-05-04 17:14 | 18.04115 | -63.10730 | 21 ft | 33 kts | 82° |
| 2026-05-04 17:15 | 18.04131 | -63.10624 | 21 ft | 7 kts | 81° |
| 2026-05-04 17:15 | 18.04123 | -63.10525 | 23 ft | 6 kts | 99° |
| 2026-05-04 17:16 | 18.04136 | -63.10563 | 21 ft | 14 kts | 269° |
| 2026-05-04 17:16 | 18.04146 | -63.10999 | 22 ft | 12 kts | 339° |
| 2026-05-04 17:17 | 18.04166 | -63.11051 | 21 ft | 0 kts | 268° |
| 2026-05-04 17:17 | 18.04165 | -63.11058 | 21 ft | 2 kts | 267° |
| 2026-05-04 17:18 | 18.04165 | -63.11075 | 22 ft | 0 kts | 271° |
| 2026-05-04 17:18 | 18.04166 | -63.11089 | 21 ft | 1 kts | 273° |
| 2026-05-04 17:19 | 18.04216 | -63.11109 | 21 ft | 2 kts | 338° |
| 2026-05-04 17:19 | 18.04218 | -63.11226 | 21 ft | 17 kts | 258° |
| 2026-05-04 17:20 | 18.04214 | -63.11295 | 23 ft | 6 kts | 290° |
| 2026-05-04 17:20 | 18.04326 | -63.11362 | 21 ft | 0 kts | 350° |
| 2026-05-04 17:20 | 18.04322 | -63.11361 | 21 ft | 1 kts | 352° |
| 2026-05-04 17:21 | 18.04328 | -63.11362 | 21 ft | 0 kts | 352° |
| 2026-05-04 17:31 | 18.04327 | -63.11362 | 48 ft | 0 kts | 352° |